sensor_id;sensor_type;location;lat;lon;timestamp;P1;durP1;ratioP1;P2;durP2;ratioP2
68108;SDS011;54893;49.864;19.084;2022-07-24T00:03:36;65.13;;;36.87;;
68108;SDS011;54893;49.864;19.084;2022-07-24T00:08:36;67.87;;;36.70;;
68108;SDS011;54893;49.864;19.084;2022-07-24T00:13:37;65.93;;;37.30;;
68108;SDS011;54893;49.864;19.084;2022-07-24T00:18:37;61.93;;;35.17;;
68108;SDS011;54893;49.864;19.084;2022-07-24T00:23:38;69.50;;;35.17;;
68108;SDS011;54893;49.864;19.084;2022-07-24T00:28:38;64.27;;;34.80;;
68108;SDS011;54893;49.864;19.084;2022-07-24T00:33:38;63.07;;;34.37;;
68108;SDS011;54893;49.864;19.084;2022-07-24T00:38:39;65.30;;;34.20;;
68108;SDS011;54893;49.864;19.084;2022-07-24T00:43:59;55.97;;;32.27;;
68108;SDS011;54893;49.864;19.084;2022-07-24T00:49:11;61.45;;;32.95;;
68108;SDS011;54893;49.864;19.084;2022-07-24T00:54:13;61.30;;;34.77;;
68108;SDS011;54893;49.864;19.084;2022-07-24T00:59:15;67.65;;;35.50;;
68108;SDS011;54893;49.864;19.084;2022-07-24T01:04:15;67.90;;;34.97;;
68108;SDS011;54893;49.864;19.084;2022-07-24T01:09:16;61.90;;;32.60;;
68108;SDS011;54893;49.864;19.084;2022-07-24T01:14:18;64.67;;;34.40;;
68108;SDS011;54893;49.864;19.084;2022-07-24T01:19:18;74.05;;;38.28;;
68108;SDS011;54893;49.864;19.084;2022-07-24T01:24:19;67.10;;;38.60;;
68108;SDS011;54893;49.864;19.084;2022-07-24T01:29:20;62.93;;;37.70;;
68108;SDS011;54893;49.864;19.084;2022-07-24T01:34:21;63.45;;;31.75;;
68108;SDS011;54893;49.864;19.084;2022-07-24T01:39:21;63.73;;;33.73;;
68108;SDS011;54893;49.864;19.084;2022-07-24T01:44:21;56.97;;;30.23;;
68108;SDS011;54893;49.864;19.084;2022-07-24T01:49:22;58.88;;;33.35;;
68108;SDS011;54893;49.864;19.084;2022-07-24T01:54:22;61.23;;;33.07;;
68108;SDS011;54893;49.864;19.084;2022-07-24T01:59:23;61.00;;;32.08;;
68108;SDS011;54893;49.864;19.084;2022-07-24T02:04:23;55.93;;;29.70;;
68108;SDS011;54893;49.864;19.084;2022-07-24T02:09:23;59.70;;;31.87;;
68108;SDS011;54893;49.864;19.084;2022-07-24T02:14:24;58.30;;;30.73;;
68108;SDS011;54893;49.864;19.084;2022-07-24T02:19:24;54.97;;;30.03;;
68108;SDS011;54893;49.864;19.084;2022-07-24T02:24:25;54.93;;;30.90;;
68108;SDS011;54893;49.864;19.084;2022-07-24T02:29:25;52.40;;;28.70;;
68108;SDS011;54893;49.864;19.084;2022-07-24T02:34:26;52.60;;;28.73;;
68108;SDS011;54893;49.864;19.084;2022-07-24T02:39:26;53.63;;;27.92;;
68108;SDS011;54893;49.864;19.084;2022-07-24T02:44:27;55.10;;;29.23;;
68108;SDS011;54893;49.864;19.084;2022-07-24T02:49:27;51.47;;;28.50;;
68108;SDS011;54893;49.864;19.084;2022-07-24T02:54:28;55.37;;;28.37;;
68108;SDS011;54893;49.864;19.084;2022-07-24T02:59:28;53.47;;;31.83;;
68108;SDS011;54893;49.864;19.084;2022-07-24T03:04:28;55.47;;;30.97;;
68108;SDS011;54893;49.864;19.084;2022-07-24T03:09:29;57.10;;;31.17;;
68108;SDS011;54893;49.864;19.084;2022-07-24T03:14:29;50.43;;;26.97;;
68108;SDS011;54893;49.864;19.084;2022-07-24T03:19:30;50.07;;;27.57;;
68108;SDS011;54893;49.864;19.084;2022-07-24T03:24:30;45.17;;;26.53;;
68108;SDS011;54893;49.864;19.084;2022-07-24T03:29:30;37.70;;;22.17;;
68108;SDS011;54893;49.864;19.084;2022-07-24T03:34:31;36.20;;;22.37;;
68108;SDS011;54893;49.864;19.084;2022-07-24T03:39:31;39.43;;;22.30;;
68108;SDS011;54893;49.864;19.084;2022-07-24T03:44:31;38.67;;;21.90;;
68108;SDS011;54893;49.864;19.084;2022-07-24T03:49:32;27.33;;;15.00;;
68108;SDS011;54893;49.864;19.084;2022-07-24T03:54:33;28.53;;;15.53;;
68108;SDS011;54893;49.864;19.084;2022-07-24T03:59:33;23.67;;;13.27;;
68108;SDS011;54893;49.864;19.084;2022-07-24T04:04:33;24.07;;;12.83;;
68108;SDS011;54893;49.864;19.084;2022-07-24T04:09:34;19.63;;;12.70;;
68108;SDS011;54893;49.864;19.084;2022-07-24T04:14:34;20.27;;;11.93;;
68108;SDS011;54893;49.864;19.084;2022-07-24T04:19:34;19.83;;;11.73;;
68108;SDS011;54893;49.864;19.084;2022-07-24T04:24:35;20.57;;;12.20;;
68108;SDS011;54893;49.864;19.084;2022-07-24T04:29:35;20.30;;;11.60;;
68108;SDS011;54893;49.864;19.084;2022-07-24T04:34:36;20.30;;;11.50;;
68108;SDS011;54893;49.864;19.084;2022-07-24T04:39:36;17.00;;;11.47;;
68108;SDS011;54893;49.864;19.084;2022-07-24T04:44:36;18.37;;;10.93;;
68108;SDS011;54893;49.864;19.084;2022-07-24T04:49:37;19.10;;;11.43;;
68108;SDS011;54893;49.864;19.084;2022-07-24T04:54:37;17.13;;;10.53;;
68108;SDS011;54893;49.864;19.084;2022-07-24T04:59:37;19.30;;;11.60;;
68108;SDS011;54893;49.864;19.084;2022-07-24T05:04:38;16.50;;;10.40;;
68108;SDS011;54893;49.864;19.084;2022-07-24T05:09:38;17.73;;;10.57;;
68108;SDS011;54893;49.864;19.084;2022-07-24T05:14:38;15.60;;;10.23;;
68108;SDS011;54893;49.864;19.084;2022-07-24T05:19:39;14.97;;;9.63;;
68108;SDS011;54893;49.864;19.084;2022-07-24T05:24:40;15.88;;;9.52;;
68108;SDS011;54893;49.864;19.084;2022-07-24T05:29:40;17.30;;;9.73;;
68108;SDS011;54893;49.864;19.084;2022-07-24T05:34:41;15.47;;;9.80;;
68108;SDS011;54893;49.864;19.084;2022-07-24T05:39:41;13.17;;;8.87;;
68108;SDS011;54893;49.864;19.084;2022-07-24T05:44:42;13.80;;;8.60;;
68108;SDS011;54893;49.864;19.084;2022-07-24T05:49:42;13.87;;;8.40;;
68108;SDS011;54893;49.864;19.084;2022-07-24T05:54:42;14.60;;;8.50;;
68108;SDS011;54893;49.864;19.084;2022-07-24T05:59:43;16.00;;;8.80;;
68108;SDS011;54893;49.864;19.084;2022-07-24T06:04:43;14.30;;;9.00;;
68108;SDS011;54893;49.864;19.084;2022-07-24T06:09:43;14.63;;;10.00;;
68108;SDS011;54893;49.864;19.084;2022-07-24T06:14:44;11.83;;;8.10;;
68108;SDS011;54893;49.864;19.084;2022-07-24T06:19:44;15.50;;;7.87;;
68108;SDS011;54893;49.864;19.084;2022-07-24T06:24:45;11.13;;;6.95;;
68108;SDS011;54893;49.864;19.084;2022-07-24T06:29:45;11.20;;;7.47;;
68108;SDS011;54893;49.864;19.084;2022-07-24T06:34:45;11.77;;;6.97;;
68108;SDS011;54893;49.864;19.084;2022-07-24T06:39:46;12.13;;;7.10;;
68108;SDS011;54893;49.864;19.084;2022-07-24T06:44:46;9.57;;;6.27;;
68108;SDS011;54893;49.864;19.084;2022-07-24T06:49:47;19.23;;;6.93;;
68108;SDS011;54893;49.864;19.084;2022-07-24T06:54:47;11.80;;;6.93;;
68108;SDS011;54893;49.864;19.084;2022-07-24T06:59:48;10.03;;;7.00;;
68108;SDS011;54893;49.864;19.084;2022-07-24T07:04:49;9.60;;;6.72;;
68108;SDS011;54893;49.864;19.084;2022-07-24T07:09:50;9.60;;;5.95;;
68108;SDS011;54893;49.864;19.084;2022-07-24T07:14:50;12.43;;;6.63;;
68108;SDS011;54893;49.864;19.084;2022-07-24T07:19:51;11.63;;;6.80;;
68108;SDS011;54893;49.864;19.084;2022-07-24T07:24:51;13.37;;;6.93;;
68108;SDS011;54893;49.864;19.084;2022-07-24T07:29:52;11.13;;;6.73;;
68108;SDS011;54893;49.864;19.084;2022-07-24T07:34:52;12.60;;;7.57;;
68108;SDS011;54893;49.864;19.084;2022-07-24T07:39:53;10.60;;;6.60;;
68108;SDS011;54893;49.864;19.084;2022-07-24T07:44:54;10.13;;;6.80;;
68108;SDS011;54893;49.864;19.084;2022-07-24T07:49:54;15.70;;;6.57;;
68108;SDS011;54893;49.864;19.084;2022-07-24T07:54:55;10.13;;;6.83;;
68108;SDS011;54893;49.864;19.084;2022-07-24T07:59:55;10.33;;;6.80;;
68108;SDS011;54893;49.864;19.084;2022-07-24T08:04:56;14.93;;;6.70;;
68108;SDS011;54893;49.864;19.084;2022-07-24T08:09:56;10.73;;;7.33;;
68108;SDS011;54893;49.864;19.084;2022-07-24T08:14:57;10.57;;;6.88;;
68108;SDS011;54893;49.864;19.084;2022-07-24T08:19:57;11.38;;;8.13;;
68108;SDS011;54893;49.864;19.084;2022-07-24T08:24:57;11.73;;;7.10;;
68108;SDS011;54893;49.864;19.084;2022-07-24T08:29:58;11.07;;;7.03;;
68108;SDS011;54893;49.864;19.084;2022-07-24T08:35:00;13.75;;;7.18;;
68108;SDS011;54893;49.864;19.084;2022-07-24T08:40:01;10.52;;;6.70;;
68108;SDS011;54893;49.864;19.084;2022-07-24T08:45:02;9.73;;;6.70;;
68108;SDS011;54893;49.864;19.084;2022-07-24T08:50:04;9.47;;;7.20;;
68108;SDS011;54893;49.864;19.084;2022-07-24T08:55:06;9.00;;;6.30;;
68108;SDS011;54893;49.864;19.084;2022-07-24T09:00:07;8.93;;;5.38;;
68108;SDS011;54893;49.864;19.084;2022-07-24T09:05:08;7.17;;;4.97;;
68108;SDS011;54893;49.864;19.084;2022-07-24T09:10:10;8.52;;;5.53;;
68108;SDS011;54893;49.864;19.084;2022-07-24T09:15:13;7.93;;;5.30;;
68108;SDS011;54893;49.864;19.084;2022-07-24T09:20:15;7.32;;;5.50;;
68108;SDS011;54893;49.864;19.084;2022-07-24T09:30:35;8.25;;;5.65;;
68108;SDS011;54893;49.864;19.084;2022-07-24T09:35:42;9.37;;;6.27;;
68108;SDS011;54893;49.864;19.084;2022-07-24T09:40:46;8.15;;;5.88;;
68108;SDS011;54893;49.864;19.084;2022-07-24T09:45:56;8.97;;;5.60;;
68108;SDS011;54893;49.864;19.084;2022-07-24T09:51:00;6.97;;;4.97;;
68108;SDS011;54893;49.864;19.084;2022-07-24T10:01:13;8.73;;;5.70;;
68108;SDS011;54893;49.864;19.084;2022-07-24T10:06:17;8.73;;;5.25;;
68108;SDS011;54893;49.864;19.084;2022-07-24T10:11:25;8.63;;;5.13;;
68108;SDS011;54893;49.864;19.084;2022-07-24T10:21:28;8.23;;;5.18;;
68108;SDS011;54893;49.864;19.084;2022-07-24T10:26:46;8.65;;;5.95;;
68108;SDS011;54893;49.864;19.084;2022-07-24T10:31:57;8.43;;;5.93;;
68108;SDS011;54893;49.864;19.084;2022-07-24T10:42:26;9.27;;;6.63;;
68108;SDS011;54893;49.864;19.084;2022-07-24T10:47:26;8.70;;;5.63;;
68108;SDS011;54893;49.864;19.084;2022-07-24T10:52:28;9.03;;;6.33;;
68108;SDS011;54893;49.864;19.084;2022-07-24T10:57:50;8.32;;;6.50;;
68108;SDS011;54893;49.864;19.084;2022-07-24T11:03:02;9.10;;;6.10;;
68108;SDS011;54893;49.864;19.084;2022-07-24T11:18:32;9.47;;;7.37;;
68108;SDS011;54893;49.864;19.084;2022-07-24T11:23:32;9.43;;;6.30;;
68108;SDS011;54893;49.864;19.084;2022-07-24T11:28:33;8.25;;;6.13;;
68108;SDS011;54893;49.864;19.084;2022-07-24T11:33:33;8.20;;;5.90;;
68108;SDS011;54893;49.864;19.084;2022-07-24T11:38:34;9.90;;;6.30;;
68108;SDS011;54893;49.864;19.084;2022-07-24T11:43:49;8.52;;;6.13;;
68108;SDS011;54893;49.864;19.084;2022-07-24T11:49:06;8.13;;;5.43;;
68108;SDS011;54893;49.864;19.084;2022-07-24T11:54:13;6.47;;;5.60;;
68108;SDS011;54893;49.864;19.084;2022-07-24T11:59:23;7.82;;;6.00;;
68108;SDS011;54893;49.864;19.084;2022-07-24T12:04:27;7.67;;;5.60;;
68108;SDS011;54893;49.864;19.084;2022-07-24T12:09:28;9.00;;;5.07;;
68108;SDS011;54893;49.864;19.084;2022-07-24T12:14:28;7.93;;;6.03;;
68108;SDS011;54893;49.864;19.084;2022-07-24T12:19:30;7.90;;;5.13;;
68108;SDS011;54893;49.864;19.084;2022-07-24T12:24:30;7.67;;;6.37;;
68108;SDS011;54893;49.864;19.084;2022-07-24T12:29:31;7.20;;;5.97;;
68108;SDS011;54893;49.864;19.084;2022-07-24T12:34:46;7.23;;;5.77;;
68108;SDS011;54893;49.864;19.084;2022-07-24T12:39:48;8.60;;;5.82;;
68108;SDS011;54893;49.864;19.084;2022-07-24T12:44:50;7.20;;;5.77;;
68108;SDS011;54893;49.864;19.084;2022-07-24T12:49:51;6.37;;;5.33;;
68108;SDS011;54893;49.864;19.084;2022-07-24T12:54:51;7.00;;;5.50;;
68108;SDS011;54893;49.864;19.084;2022-07-24T12:59:52;7.37;;;5.80;;
68108;SDS011;54893;49.864;19.084;2022-07-24T13:05:01;8.63;;;6.03;;
68108;SDS011;54893;49.864;19.084;2022-07-24T13:10:01;7.30;;;5.50;;
68108;SDS011;54893;49.864;19.084;2022-07-24T13:15:02;7.60;;;5.50;;
68108;SDS011;54893;49.864;19.084;2022-07-24T13:20:03;7.33;;;5.90;;
68108;SDS011;54893;49.864;19.084;2022-07-24T13:25:06;7.55;;;4.95;;
68108;SDS011;54893;49.864;19.084;2022-07-24T13:30:07;7.07;;;4.80;;
68108;SDS011;54893;49.864;19.084;2022-07-24T13:35:08;7.17;;;4.97;;
68108;SDS011;54893;49.864;19.084;2022-07-24T13:40:09;5.97;;;4.03;;
68108;SDS011;54893;49.864;19.084;2022-07-24T13:45:12;6.10;;;4.40;;
68108;SDS011;54893;49.864;19.084;2022-07-24T13:50:12;7.53;;;5.03;;
68108;SDS011;54893;49.864;19.084;2022-07-24T13:55:12;6.53;;;4.10;;
68108;SDS011;54893;49.864;19.084;2022-07-24T14:00:13;6.23;;;4.40;;
68108;SDS011;54893;49.864;19.084;2022-07-24T14:05:14;7.87;;;4.47;;
68108;SDS011;54893;49.864;19.084;2022-07-24T14:10:14;5.70;;;3.97;;
68108;SDS011;54893;49.864;19.084;2022-07-24T14:15:15;6.77;;;4.03;;
68108;SDS011;54893;49.864;19.084;2022-07-24T14:20:16;5.73;;;3.60;;
68108;SDS011;54893;49.864;19.084;2022-07-24T14:25:16;5.03;;;3.53;;
68108;SDS011;54893;49.864;19.084;2022-07-24T14:30:16;5.37;;;3.20;;
68108;SDS011;54893;49.864;19.084;2022-07-24T14:35:17;4.50;;;3.33;;
68108;SDS011;54893;49.864;19.084;2022-07-24T14:40:17;5.77;;;3.90;;
68108;SDS011;54893;49.864;19.084;2022-07-24T14:45:18;5.53;;;3.67;;
68108;SDS011;54893;49.864;19.084;2022-07-24T14:50:18;4.73;;;3.53;;
68108;SDS011;54893;49.864;19.084;2022-07-24T14:55:19;5.37;;;3.53;;
68108;SDS011;54893;49.864;19.084;2022-07-24T15:00:19;4.93;;;3.50;;
68108;SDS011;54893;49.864;19.084;2022-07-24T15:05:20;4.50;;;3.40;;
68108;SDS011;54893;49.864;19.084;2022-07-24T15:10:20;5.00;;;3.33;;
68108;SDS011;54893;49.864;19.084;2022-07-24T15:15:21;4.40;;;3.17;;
68108;SDS011;54893;49.864;19.084;2022-07-24T15:20:22;4.47;;;3.55;;
68108;SDS011;54893;49.864;19.084;2022-07-24T15:25:23;7.07;;;3.20;;
68108;SDS011;54893;49.864;19.084;2022-07-24T15:30:23;4.30;;;3.10;;
68108;SDS011;54893;49.864;19.084;2022-07-24T15:35:24;3.70;;;2.97;;
68108;SDS011;54893;49.864;19.084;2022-07-24T15:40:24;5.77;;;3.17;;
68108;SDS011;54893;49.864;19.084;2022-07-24T15:45:29;4.30;;;3.03;;
68108;SDS011;54893;49.864;19.084;2022-07-24T15:50:29;4.97;;;3.40;;
68108;SDS011;54893;49.864;19.084;2022-07-24T15:55:30;4.37;;;3.23;;
68108;SDS011;54893;49.864;19.084;2022-07-24T16:00:30;3.50;;;2.70;;
68108;SDS011;54893;49.864;19.084;2022-07-24T16:05:31;4.38;;;2.90;;
68108;SDS011;54893;49.864;19.084;2022-07-24T16:10:32;5.37;;;2.83;;
68108;SDS011;54893;49.864;19.084;2022-07-24T16:15:33;5.23;;;2.93;;
68108;SDS011;54893;49.864;19.084;2022-07-24T16:20:34;4.45;;;2.70;;
68108;SDS011;54893;49.864;19.084;2022-07-24T16:25:34;3.70;;;2.50;;
68108;SDS011;54893;49.864;19.084;2022-07-24T16:30:34;4.30;;;2.70;;
68108;SDS011;54893;49.864;19.084;2022-07-24T16:35:35;4.83;;;2.50;;
68108;SDS011;54893;49.864;19.084;2022-07-24T16:40:35;3.30;;;2.53;;
68108;SDS011;54893;49.864;19.084;2022-07-24T16:45:36;3.95;;;2.60;;
68108;SDS011;54893;49.864;19.084;2022-07-24T16:50:37;4.10;;;2.60;;
68108;SDS011;54893;49.864;19.084;2022-07-24T16:55:37;5.07;;;2.40;;
68108;SDS011;54893;49.864;19.084;2022-07-24T17:00:37;3.93;;;2.23;;
68108;SDS011;54893;49.864;19.084;2022-07-24T17:05:38;4.80;;;2.20;;
68108;SDS011;54893;49.864;19.084;2022-07-24T17:10:38;7.50;;;2.10;;
68108;SDS011;54893;49.864;19.084;2022-07-24T17:15:39;3.37;;;1.97;;
68108;SDS011;54893;49.864;19.084;2022-07-24T17:20:39;4.17;;;2.20;;
68108;SDS011;54893;49.864;19.084;2022-07-24T17:25:42;5.63;;;2.17;;
68108;SDS011;54893;49.864;19.084;2022-07-24T17:30:42;4.27;;;2.20;;
68108;SDS011;54893;49.864;19.084;2022-07-24T17:35:46;3.03;;;2.10;;
68108;SDS011;54893;49.864;19.084;2022-07-24T17:40:47;3.57;;;2.30;;
68108;SDS011;54893;49.864;19.084;2022-07-24T17:45:47;4.17;;;2.10;;
68108;SDS011;54893;49.864;19.084;2022-07-24T17:50:47;3.30;;;2.10;;
68108;SDS011;54893;49.864;19.084;2022-07-24T17:55:48;3.50;;;2.47;;
68108;SDS011;54893;49.864;19.084;2022-07-24T18:00:48;3.70;;;2.10;;
68108;SDS011;54893;49.864;19.084;2022-07-24T18:05:49;5.30;;;2.30;;
68108;SDS011;54893;49.864;19.084;2022-07-24T18:10:49;5.20;;;2.20;;
68108;SDS011;54893;49.864;19.084;2022-07-24T18:15:50;5.10;;;2.30;;
68108;SDS011;54893;49.864;19.084;2022-07-24T18:20:53;4.13;;;2.27;;
68108;SDS011;54893;49.864;19.084;2022-07-24T18:25:53;14.37;;;2.77;;
68108;SDS011;54893;49.864;19.084;2022-07-24T18:30:53;7.90;;;2.40;;
68108;SDS011;54893;49.864;19.084;2022-07-24T18:35:54;21.67;;;2.83;;
68108;SDS011;54893;49.864;19.084;2022-07-24T18:40:54;8.00;;;2.40;;
68108;SDS011;54893;49.864;19.084;2022-07-24T18:45:55;6.90;;;2.55;;
68108;SDS011;54893;49.864;19.084;2022-07-24T18:50:55;3.77;;;2.20;;
68108;SDS011;54893;49.864;19.084;2022-07-24T18:55:56;5.40;;;2.27;;
68108;SDS011;54893;49.864;19.084;2022-07-24T19:00:58;6.80;;;2.70;;
68108;SDS011;54893;49.864;19.084;2022-07-24T19:05:58;8.13;;;3.17;;
68108;SDS011;54893;49.864;19.084;2022-07-24T19:10:59;7.10;;;3.33;;
68108;SDS011;54893;49.864;19.084;2022-07-24T19:15:59;5.88;;;3.20;;
68108;SDS011;54893;49.864;19.084;2022-07-24T19:21:00;7.35;;;3.55;;
68108;SDS011;54893;49.864;19.084;2022-07-24T19:26:00;7.63;;;3.33;;
68108;SDS011;54893;49.864;19.084;2022-07-24T19:31:01;6.83;;;3.33;;
68108;SDS011;54893;49.864;19.084;2022-07-24T19:36:01;7.40;;;3.30;;
68108;SDS011;54893;49.864;19.084;2022-07-24T19:41:02;6.97;;;2.97;;
68108;SDS011;54893;49.864;19.084;2022-07-24T19:46:02;9.53;;;4.27;;
68108;SDS011;54893;49.864;19.084;2022-07-24T19:51:03;7.07;;;3.87;;
68108;SDS011;54893;49.864;19.084;2022-07-24T19:56:03;8.00;;;3.78;;
68108;SDS011;54893;49.864;19.084;2022-07-24T20:01:04;105.90;;;51.80;;
68108;SDS011;54893;49.864;19.084;2022-07-24T20:06:04;128.97;;;67.63;;
68108;SDS011;54893;49.864;19.084;2022-07-24T20:11:06;156.45;;;92.38;;
68108;SDS011;54893;49.864;19.084;2022-07-24T20:16:07;109.65;;;62.75;;
68108;SDS011;54893;49.864;19.084;2022-07-24T20:21:07;87.00;;;50.40;;
68108;SDS011;54893;49.864;19.084;2022-07-24T20:26:08;44.40;;;25.90;;
68108;SDS011;54893;49.864;19.084;2022-07-24T20:31:08;38.97;;;22.10;;
68108;SDS011;54893;49.864;19.084;2022-07-24T20:36:09;19.67;;;12.20;;
68108;SDS011;54893;49.864;19.084;2022-07-24T20:41:10;18.00;;;10.98;;
68108;SDS011;54893;49.864;19.084;2022-07-24T20:46:10;12.05;;;6.47;;
68108;SDS011;54893;49.864;19.084;2022-07-24T20:51:11;13.70;;;6.23;;
68108;SDS011;54893;49.864;19.084;2022-07-24T20:56:11;9.00;;;5.17;;
68108;SDS011;54893;49.864;19.084;2022-07-24T21:01:12;9.30;;;5.10;;
68108;SDS011;54893;49.864;19.084;2022-07-24T21:06:12;8.57;;;4.90;;
68108;SDS011;54893;49.864;19.084;2022-07-24T21:11:12;8.37;;;4.50;;
68108;SDS011;54893;49.864;19.084;2022-07-24T21:16:13;9.27;;;4.33;;
68108;SDS011;54893;49.864;19.084;2022-07-24T21:21:13;8.00;;;4.57;;
68108;SDS011;54893;49.864;19.084;2022-07-24T21:26:17;9.20;;;4.50;;
68108;SDS011;54893;49.864;19.084;2022-07-24T21:31:17;7.90;;;4.45;;
68108;SDS011;54893;49.864;19.084;2022-07-24T21:36:18;10.50;;;4.53;;
68108;SDS011;54893;49.864;19.084;2022-07-24T21:41:18;10.27;;;4.60;;
68108;SDS011;54893;49.864;19.084;2022-07-24T21:46:19;8.70;;;4.67;;
68108;SDS011;54893;49.864;19.084;2022-07-24T21:51:20;8.73;;;4.43;;
68108;SDS011;54893;49.864;19.084;2022-07-24T21:56:20;7.30;;;4.15;;
68108;SDS011;54893;49.864;19.084;2022-07-24T22:01:21;8.52;;;4.35;;
68108;SDS011;54893;49.864;19.084;2022-07-24T22:06:22;8.97;;;3.80;;
68108;SDS011;54893;49.864;19.084;2022-07-24T22:11:22;7.87;;;4.00;;
68108;SDS011;54893;49.864;19.084;2022-07-24T22:16:22;6.93;;;3.53;;
68108;SDS011;54893;49.864;19.084;2022-07-24T22:21:23;10.10;;;3.37;;
68108;SDS011;54893;49.864;19.084;2022-07-24T22:26:23;6.97;;;3.30;;
68108;SDS011;54893;49.864;19.084;2022-07-24T22:31:24;7.37;;;3.47;;
68108;SDS011;54893;49.864;19.084;2022-07-24T22:36:26;6.60;;;3.00;;
68108;SDS011;54893;49.864;19.084;2022-07-24T22:41:27;5.22;;;2.90;;
68108;SDS011;54893;49.864;19.084;2022-07-24T22:46:32;5.30;;;2.67;;
68108;SDS011;54893;49.864;19.084;2022-07-24T22:51:33;7.18;;;2.60;;
68108;SDS011;54893;49.864;19.084;2022-07-24T22:56:34;5.53;;;2.83;;
68108;SDS011;54893;49.864;19.084;2022-07-24T23:01:35;4.40;;;2.53;;
68108;SDS011;54893;49.864;19.084;2022-07-24T23:06:35;7.73;;;2.77;;
68108;SDS011;54893;49.864;19.084;2022-07-24T23:11:35;6.27;;;2.70;;
68108;SDS011;54893;49.864;19.084;2022-07-24T23:16:36;4.87;;;2.40;;
68108;SDS011;54893;49.864;19.084;2022-07-24T23:21:36;5.77;;;2.63;;
68108;SDS011;54893;49.864;19.084;2022-07-24T23:26:37;6.23;;;2.90;;
68108;SDS011;54893;49.864;19.084;2022-07-24T23:31:38;5.63;;;3.00;;
68108;SDS011;54893;49.864;19.084;2022-07-24T23:36:38;6.03;;;2.63;;
68108;SDS011;54893;49.864;19.084;2022-07-24T23:41:39;6.00;;;3.00;;
68108;SDS011;54893;49.864;19.084;2022-07-24T23:46:39;6.53;;;2.80;;
68108;SDS011;54893;49.864;19.084;2022-07-24T23:51:39;5.83;;;2.80;;
68108;SDS011;54893;49.864;19.084;2022-07-24T23:56:40;7.13;;;3.10;;
